Accueil
METAR-TAF:

METAR-TAF

Aéroports :

Aéroport Tompkins d'Ithaca

Ithaca, New York, États-Unis

latitude: 42-29N, longitude: 076-27W, altitude: 335 m

Observation

Le bulletin a été fait il y a 1 heure et 1 minutes, à 00:56 UTC
Vent 3 kt de nord-est
Température -3°C
Humidité 74%
Pression 1021 hPa
Visibilité: 16.1 km
Ciel couvert à une hauteur de 2200 ft

METAR: KITH 110056Z 04003KT 10SM OVC022 M03/M07 A3015 RMK AO2 SLP224 T10281067

Heure: 20:57 (01:57 UTC)

Prévision

Le bulletin a été fait il y a 2 heures et 31 minutes, à 23:26 UTC
Prévision valable du 11 à 00 UTC au 11 à 24 UTC
Vent 6 kt de nord/nord-ouest
Visibilité: 10 km
Ciel couvert à une hauteur de 2500 ft
A partir de 11 à 1500 UTC
Vent 6 kt de sud
Visibilité: 10 km
Ciel couvert à une hauteur de 4000 ft

TAF: KITH 102326Z 1100/1124 34006KT P6SM OVC025 FM111500 19006KT P6SM OVC040

Observations et prévisions météorologiques de plus de 4000 aéroports (messages METAR et TAF).

Les stations disponibles sont représentées par des disques jaunes et rouges sur la carte.

Passer la souris dessus pour voir le nom de la station.

Cliquer dessus pour voir les observations et prévisions météorologiques.

Pour changer de carte: cliquez sur les boutons verts avec une croix noire pour zoomer, sur le bouton vert avec un tiret pour effectuer un zoom arrière, ou sur les flèches vertes pour les cartes adjacentes.


METAR-TAF: